createdAt,value
2022-08-18T00:00:49.985Z,4.77
2022-08-18T00:03:57.286Z,5.03
2022-08-18T00:07:10.809Z,6.17
2022-08-18T00:10:18.185Z,4.70
2022-08-18T00:13:20.352Z,4.73
2022-08-18T00:16:21.834Z,6.23
2022-08-18T00:19:45.491Z,6.33
2022-08-18T00:22:46.584Z,5.97
2022-08-18T00:25:50.187Z,5.00
2022-08-18T00:28:51.605Z,5.93
2022-08-18T00:31:53.295Z,5.40
2022-08-18T00:34:54.978Z,5.10
2022-08-18T00:37:58.466Z,4.50
2022-08-18T00:40:59.937Z,4.40
2022-08-18T00:44:04.463Z,6.27
2022-08-18T00:47:06.030Z,4.70
2022-08-18T00:50:08.036Z,6.17
2022-08-18T00:53:29.381Z,4.87
2022-08-18T00:56:35.568Z,5.37
2022-08-18T00:59:42.857Z,4.93
2022-08-18T01:02:50.512Z,5.53
2022-08-18T01:06:03.416Z,5.07
2022-08-18T01:09:05.867Z,5.13
2022-08-18T01:12:44.313Z,4.97
2022-08-18T01:15:31.561Z,5.47
2022-08-18T01:18:51.591Z,6.93
2022-08-18T01:22:00.868Z,5.00
2022-08-18T01:25:26.302Z,5.20
2022-08-18T01:28:29.342Z,4.90
2022-08-18T01:31:37.545Z,4.73
2022-08-18T01:34:39.100Z,6.17
2022-08-18T01:37:41.309Z,5.20
2022-08-18T01:41:06.262Z,4.67
2022-08-18T01:44:05.145Z,5.87
2022-08-18T01:47:06.593Z,6.83
2022-08-18T01:50:11.086Z,4.57
2022-08-18T01:53:12.554Z,6.20
2022-08-18T01:56:17.551Z,5.03
2022-08-18T01:59:19.064Z,5.73
2022-08-18T02:02:26.029Z,4.83
2022-08-18T02:05:33.531Z,4.90
2022-08-18T02:08:35.483Z,5.67
2022-08-18T02:11:36.911Z,4.60
2022-08-18T02:14:40.434Z,4.47
2022-08-18T02:17:44.637Z,4.70
2022-08-18T02:20:47.897Z,4.30
2022-08-18T02:23:53.242Z,4.77
2022-08-18T02:26:55.537Z,5.50
2022-08-18T02:29:59.813Z,4.93
2022-08-18T02:33:01.725Z,4.43
2022-08-18T02:36:04.218Z,5.27
2022-08-18T02:39:05.628Z,4.50
2022-08-18T02:42:07.702Z,5.43
2022-08-18T02:45:09.739Z,4.70
2022-08-18T02:48:11.226Z,5.10
2022-08-18T02:51:16.786Z,5.80
2022-08-18T02:54:20.530Z,4.93
2022-08-18T02:57:22.478Z,4.40
2022-08-18T03:00:23.900Z,4.73
2022-08-18T03:03:25.354Z,4.43
2022-08-18T03:06:28.449Z,4.23
2022-08-18T03:09:31.804Z,4.63
2022-08-18T03:12:33.213Z,6.50
2022-08-18T03:15:34.695Z,4.50
2022-08-18T03:18:36.716Z,4.83
2022-08-18T03:21:38.171Z,5.10
2022-08-18T03:24:39.747Z,5.57
2022-08-18T03:27:41.154Z,4.53
2022-08-18T03:30:43.419Z,5.13
2022-08-18T03:33:46.455Z,4.53
2022-08-18T03:36:50.486Z,4.30
2022-08-18T03:39:52.753Z,4.97
2022-08-18T03:42:54.227Z,4.97
2022-08-18T03:45:55.629Z,4.90
2022-08-18T03:48:58.903Z,4.73
2022-08-18T03:52:00.770Z,5.33
2022-08-18T03:55:02.859Z,5.47
2022-08-18T03:58:04.514Z,6.10
2022-08-18T04:01:05.959Z,5.80
2022-08-18T04:04:15.055Z,5.60
2022-08-18T04:07:17.519Z,7.00
2022-08-18T04:10:19.814Z,7.77
2022-08-18T04:13:21.312Z,4.87
2022-08-18T04:16:22.731Z,5.83
2022-08-18T04:19:27.224Z,5.43
2022-08-18T04:22:29.380Z,5.57
2022-08-18T04:25:33.203Z,5.50
2022-08-18T04:28:35.287Z,5.80
2022-08-18T04:31:37.764Z,6.07
2022-08-18T04:34:39.338Z,6.53
2022-08-18T04:37:41.951Z,9.27
2022-08-18T04:40:43.475Z,9.83
2022-08-18T04:43:45.164Z,5.93
2022-08-18T04:46:49.524Z,7.03
2022-08-18T04:49:50.933Z,6.77
2022-08-18T04:53:11.093Z,6.00
2022-08-18T04:56:27.881Z,5.17
2022-08-18T04:59:29.293Z,6.77
2022-08-18T05:02:33.069Z,5.73
2022-08-18T05:05:35.244Z,6.30
2022-08-18T05:08:36.644Z,5.97
2022-08-18T05:11:38.926Z,6.70
2022-08-18T05:14:41.374Z,7.30
2022-08-18T05:17:43.222Z,7.07
2022-08-18T05:20:48.362Z,5.90
2022-08-18T05:23:50.656Z,6.60
2022-08-18T05:26:53.486Z,6.43
2022-08-18T05:29:55.373Z,6.50
2022-08-18T05:32:59.010Z,8.37
2022-08-18T05:36:04.131Z,6.07
2022-08-18T05:39:11.560Z,5.77
2022-08-18T05:42:17.637Z,6.37
2022-08-18T05:45:20.323Z,5.90
2022-08-18T05:48:21.792Z,9.70
2022-08-18T05:51:29.260Z,7.97
2022-08-18T05:55:07.668Z,6.07
2022-08-18T05:58:17.948Z,8.80
2022-08-18T06:01:23.881Z,6.73
2022-08-18T06:04:34.367Z,6.43
2022-08-18T06:07:46.893Z,7.27
2022-08-18T06:10:50.654Z,9.77
2022-08-18T06:13:59.436Z,8.37
2022-08-18T06:17:24.838Z,8.73
2022-08-18T06:20:44.436Z,10.10
2022-08-18T06:24:07.522Z,8.30
2022-08-18T06:27:23.042Z,8.63
2022-08-18T06:30:39.602Z,7.23
2022-08-18T06:33:56.201Z,7.80
2022-08-18T06:37:11.045Z,8.23
2022-08-18T06:40:12.495Z,7.50
2022-08-18T06:43:16.972Z,7.43
2022-08-18T06:46:24.084Z,7.83
2022-08-18T06:49:36.201Z,7.27
2022-08-18T06:52:51.403Z,8.87
2022-08-18T06:55:52.959Z,7.60
2022-08-18T06:58:55.473Z,7.27
2022-08-18T07:02:24.670Z,8.70
2022-08-18T07:05:28.990Z,7.80
2022-08-18T07:08:37.017Z,7.23
2022-08-18T07:11:43.162Z,8.87
2022-08-18T07:14:48.412Z,8.83
2022-08-18T07:17:50.256Z,8.87
2022-08-18T07:20:56.234Z,12.80
2022-08-18T07:24:25.774Z,14.00
2022-08-18T07:27:49.749Z,12.37
2022-08-18T07:31:15.628Z,11.13
2022-08-18T07:34:33.306Z,8.77
2022-08-18T07:37:54.933Z,8.47
2022-08-18T07:41:02.960Z,9.13
2022-08-18T07:44:13.808Z,8.93
2022-08-18T07:47:26.327Z,9.23
2022-08-18T07:50:57.412Z,10.43
2022-08-18T07:54:45.479Z,8.27
2022-08-18T07:57:51.947Z,9.23
2022-08-18T08:01:42.057Z,8.80
2022-08-18T08:05:17.022Z,8.50
2022-08-18T08:08:39.979Z,7.93
2022-08-18T08:12:02.364Z,11.60
2022-08-18T08:15:17.606Z,8.87
2022-08-18T08:18:36.790Z,9.20
2022-08-18T08:21:44.981Z,9.03
2022-08-18T08:25:03.208Z,9.57
2022-08-18T08:28:16.354Z,9.70
2022-08-18T08:31:39.754Z,10.70
2022-08-18T08:34:44.225Z,12.63
2022-08-18T08:37:53.297Z,10.30
2022-08-18T08:41:08.143Z,11.53
2022-08-18T08:44:17.762Z,11.67
2022-08-18T08:47:47.694Z,10.97
2022-08-18T08:50:54.428Z,10.87
2022-08-18T08:54:20.234Z,11.93
2022-08-18T08:57:27.798Z,15.30
2022-08-18T09:00:30.796Z,11.77
2022-08-18T09:03:38.233Z,13.60
2022-08-18T09:07:24.602Z,13.60
2022-08-18T09:11:03.621Z,14.53
2022-08-18T09:14:43.978Z,16.33
2022-08-18T09:18:00.607Z,12.77
2022-08-18T09:21:13.289Z,13.30
2022-08-18T09:24:25.764Z,13.37
2022-08-18T09:28:00.184Z,14.10
2022-08-18T09:31:03.089Z,14.57
2022-08-18T09:34:22.622Z,17.03
2022-08-18T09:38:12.764Z,16.57
2022-08-18T09:41:34.147Z,17.90
2022-08-18T09:44:47.553Z,18.53
2022-08-18T09:47:57.079Z,21.07
2022-08-18T09:51:35.276Z,19.47
2022-08-18T09:54:53.564Z,20.40
2022-08-18T09:58:39.762Z,19.93
2022-08-18T10:01:42.085Z,20.67
2022-08-18T10:04:51.171Z,20.47
2022-08-18T10:08:28.794Z,20.13
2022-08-18T10:11:51.009Z,19.60
2022-08-18T10:15:33.891Z,18.97
2022-08-18T10:18:39.599Z,20.23
2022-08-18T10:21:56.400Z,19.90
2022-08-18T10:25:19.822Z,18.83
2022-08-18T10:28:48.716Z,21.13
2022-08-18T10:31:57.628Z,19.47
2022-08-18T10:34:59.963Z,20.00
2022-08-18T10:38:18.659Z,19.63
2022-08-18T10:41:30.799Z,21.03
2022-08-18T10:44:42.548Z,21.17
2022-08-18T10:47:45.146Z,20.30
2022-08-18T10:51:27.494Z,21.30
2022-08-18T10:54:52.016Z,20.00
2022-08-18T10:58:17.636Z,20.47
2022-08-18T11:01:32.809Z,19.10
2022-08-18T11:04:47.321Z,20.87
2022-08-18T11:08:03.809Z,20.77
2022-08-18T11:11:34.525Z,21.50
2022-08-18T11:15:23.092Z,19.87
2022-08-18T11:18:43.030Z,21.47
2022-08-18T11:21:51.338Z,20.60
2022-08-18T11:24:53.443Z,20.93
2022-08-18T11:27:56.241Z,20.27
2022-08-18T11:30:59.326Z,21.10
2022-08-18T11:34:01.654Z,19.90
2022-08-18T11:37:22.593Z,21.07
2022-08-18T11:41:09.456Z,20.60
2022-08-18T11:43:59.758Z,19.30
2022-08-18T11:50:55.762Z,27.60
2022-08-18T11:57:54.453Z,26.07
2022-08-18T12:01:01.517Z,26.50
2022-08-18T12:04:14.022Z,22.03
2022-08-18T12:07:28.452Z,23.33
2022-08-18T12:10:30.045Z,24.43
2022-08-18T12:13:31.778Z,38.47
2022-08-18T12:16:40.532Z,18.03
2022-08-18T12:19:47.983Z,23.00
2022-08-18T12:22:49.894Z,18.03
2022-08-18T12:29:12.854Z,17.23
2022-08-18T12:32:46.768Z,17.83
2022-08-18T12:35:42.251Z,15.47
2022-08-18T12:38:44.894Z,14.60
2022-08-18T12:41:54.168Z,15.03
2022-08-18T12:44:55.582Z,12.20
2022-08-18T12:47:57.140Z,12.67
2022-08-18T12:51:00.892Z,12.33
2022-08-18T12:54:07.097Z,12.50
2022-08-18T12:57:33.238Z,12.60
2022-08-18T13:00:44.066Z,10.83
2022-08-18T13:03:52.746Z,9.00
2022-08-18T13:07:13.165Z,12.03
2022-08-18T13:10:21.849Z,8.68
2022-08-18T13:16:53.902Z,8.15
2022-08-18T13:19:56.525Z,7.30
2022-08-18T13:22:59.567Z,7.00
2022-08-18T13:26:03.030Z,6.43
2022-08-18T13:29:05.198Z,8.57
2022-08-18T13:32:12.066Z,6.65
2022-08-18T13:35:13.827Z,6.32
2022-08-18T13:38:25.878Z,6.88
2022-08-18T13:41:31.549Z,7.82
2022-08-18T13:44:34.065Z,7.70
2022-08-18T13:47:38.276Z,7.38
2022-08-18T13:50:40.273Z,7.22
2022-08-18T13:53:57.408Z,6.50
2022-08-18T13:57:00.983Z,7.00
2022-08-18T14:09:51.518Z,8.38
2022-08-18T14:12:59.398Z,9.15
2022-08-18T14:16:01.064Z,9.10
2022-08-18T14:24:48.660Z,9.80
2022-08-18T14:27:56.419Z,9.98
2022-08-18T14:31:00.765Z,11.23
2022-08-18T14:34:04.302Z,10.93
2022-08-18T14:37:05.898Z,10.15
2022-08-18T14:40:12.380Z,10.25
2022-08-18T14:43:17.147Z,10.75
2022-08-18T14:49:28.687Z,12.63
2022-08-18T14:52:30.923Z,14.43
2022-08-18T14:55:34.141Z,14.00
2022-08-18T14:58:35.692Z,12.43
2022-08-18T15:01:42.875Z,12.88
2022-08-18T15:04:53.006Z,14.38
2022-08-18T15:08:03.397Z,14.70
2022-08-18T15:11:11.821Z,12.57
2022-08-18T15:14:14.118Z,13.52
2022-08-18T15:17:17.250Z,14.23
2022-08-18T15:20:29.722Z,16.80
2022-08-18T15:23:50.136Z,15.15
2022-08-18T15:27:05.440Z,16.02
2022-08-18T15:30:11.327Z,17.27
2022-08-18T15:33:15.662Z,15.40
2022-08-18T15:36:21.474Z,16.20
2022-08-18T15:39:30.519Z,15.13
2022-08-18T15:42:34.287Z,15.90
2022-08-18T15:45:51.023Z,14.77
2022-08-18T15:48:58.153Z,12.95
2022-08-18T15:51:59.812Z,13.20
2022-08-18T15:55:04.718Z,13.40
2022-08-18T15:58:12.412Z,13.15
2022-08-18T16:01:30.433Z,12.23
2022-08-18T16:04:34.935Z,12.57
2022-08-18T16:07:41.143Z,12.52
2022-08-18T16:10:46.827Z,12.60
2022-08-18T16:13:49.310Z,12.95
2022-08-18T16:16:50.783Z,14.93
2022-08-18T16:19:52.205Z,11.25
2022-08-18T16:22:53.969Z,11.57
2022-08-18T16:26:00.772Z,11.32
2022-08-18T16:29:02.284Z,13.05
2022-08-18T16:32:04.811Z,11.35
2022-08-18T16:35:19.645Z,12.63
2022-08-18T16:38:21.799Z,12.38
2022-08-18T16:41:23.280Z,11.57
2022-08-18T16:44:24.858Z,10.60
2022-08-18T16:47:26.921Z,10.82
2022-08-18T16:50:29.623Z,12.13
2022-08-18T16:53:39.834Z,9.57
2022-08-18T16:56:41.960Z,9.60
2022-08-18T17:00:02.025Z,9.95
2022-08-18T17:03:23.887Z,10.00
2022-08-18T17:06:28.220Z,8.60
2022-08-18T17:09:29.746Z,9.13
2022-08-18T17:12:31.339Z,8.63
2022-08-18T17:15:33.158Z,9.13
2022-08-18T17:18:36.033Z,8.60
2022-08-18T17:21:37.890Z,8.65
2022-08-18T17:24:41.169Z,8.55
2022-08-18T17:27:49.407Z,8.75
2022-08-18T17:30:54.421Z,8.23
2022-08-18T17:34:00.932Z,8.80
2022-08-18T17:37:03.826Z,8.60
2022-08-18T17:40:13.246Z,8.15
2022-08-18T17:43:24.880Z,9.02
2022-08-18T17:46:30.081Z,8.43
2022-08-18T17:50:26.416Z,9.48
2022-08-18T17:53:17.461Z,8.43
2022-08-18T17:56:35.392Z,8.70
2022-08-18T17:59:51.982Z,8.45
2022-08-18T18:02:53.704Z,8.30
2022-08-18T18:06:02.998Z,9.20
2022-08-18T18:09:11.132Z,8.68
2022-08-18T18:12:23.361Z,9.43
2022-08-18T18:15:31.915Z,8.80
2022-08-18T18:18:45.023Z,8.43
2022-08-18T18:22:03.340Z,9.30
2022-08-18T18:25:07.505Z,8.77
2022-08-18T18:28:29.265Z,8.80
2022-08-18T18:31:31.411Z,9.93
2022-08-18T18:34:45.177Z,8.48
2022-08-18T18:38:00.132Z,8.38
2022-08-18T18:41:03.652Z,8.73
2022-08-18T18:44:10.508Z,8.50
2022-08-18T18:47:33.604Z,10.82
2022-08-18T18:50:53.032Z,9.05
2022-08-18T18:54:23.533Z,9.13
2022-08-18T18:57:40.267Z,9.13
2022-08-18T19:00:53.635Z,9.40
2022-08-18T19:04:10.055Z,9.10
2022-08-18T19:07:21.265Z,10.43
2022-08-18T19:10:34.932Z,10.38
2022-08-18T19:13:44.926Z,10.82
2022-08-18T19:17:08.504Z,12.60
2022-08-18T19:20:16.930Z,11.20
2022-08-18T19:23:59.509Z,13.43
2022-08-18T19:27:03.790Z,11.53
2022-08-18T19:30:09.447Z,11.77
2022-08-18T19:33:18.413Z,11.47
2022-08-18T19:36:44.017Z,13.17
2022-08-18T19:39:55.656Z,11.13
2022-08-18T19:43:26.553Z,11.50
2022-08-18T19:46:37.878Z,12.60
2022-08-18T19:49:56.435Z,11.93
2022-08-18T19:53:14.433Z,11.50
2022-08-18T19:56:24.649Z,11.67
2022-08-18T19:59:45.765Z,12.27
2022-08-18T20:03:21.283Z,12.10
2022-08-18T20:06:49.825Z,12.33
2022-08-18T20:10:21.106Z,13.53
2022-08-18T20:13:38.394Z,13.23
2022-08-18T20:16:44.921Z,11.80
2022-08-18T20:19:57.328Z,12.30
2022-08-18T20:23:00.165Z,12.10
2022-08-18T20:26:01.846Z,14.47
2022-08-18T20:29:05.076Z,12.83
2022-08-18T20:32:19.162Z,12.40
2022-08-18T20:35:31.609Z,14.90
2022-08-18T20:38:35.507Z,12.53
2022-08-18T20:41:45.137Z,13.20
2022-08-18T20:44:49.583Z,13.20
2022-08-18T20:48:06.956Z,13.30
2022-08-18T20:51:16.189Z,13.23
2022-08-18T20:54:28.198Z,13.80
2022-08-18T20:57:34.853Z,12.63
2022-08-18T21:00:40.405Z,13.00
2022-08-18T21:03:46.054Z,12.77
2022-08-18T21:06:48.358Z,12.77
2022-08-18T21:09:52.766Z,13.10
2022-08-18T21:12:57.730Z,12.90
2022-08-18T21:15:59.730Z,12.87
2022-08-18T21:19:13.761Z,13.57
2022-08-18T21:22:15.145Z,15.47
2022-08-18T21:25:16.932Z,12.90
2022-08-18T21:28:18.596Z,14.00
2022-08-18T21:31:44.230Z,15.13
2022-08-18T21:34:47.157Z,13.47
2022-08-18T21:37:58.016Z,14.37
2022-08-18T21:41:00.919Z,13.97
2022-08-18T21:44:13.535Z,13.57
2022-08-18T21:47:20.802Z,13.17
2022-08-18T21:50:33.921Z,13.30
2022-08-18T21:53:38.187Z,13.63
2022-08-18T21:56:40.106Z,13.27
2022-08-18T22:00:17.052Z,13.27
2022-08-18T22:03:21.553Z,12.70
2022-08-18T22:06:29.010Z,12.60
2022-08-18T22:09:52.338Z,12.43
2022-08-18T22:13:15.014Z,15.17
2022-08-18T22:16:27.757Z,12.73
2022-08-18T22:19:29.214Z,13.93
2022-08-18T22:22:49.192Z,13.60
2022-08-18T22:25:51.229Z,13.17
2022-08-18T22:29:13.411Z,12.67
2022-08-18T22:32:15.477Z,12.90
2022-08-18T22:35:17.527Z,14.23
2022-08-18T22:38:19.081Z,14.27
2022-08-18T22:41:21.849Z,13.13
2022-08-18T22:44:24.072Z,15.70
2022-08-18T22:47:25.861Z,13.93
2022-08-18T22:50:27.283Z,12.10
2022-08-18T22:53:29.389Z,13.40
2022-08-18T22:56:34.346Z,13.97
2022-08-18T22:59:36.832Z,13.57
2022-08-18T23:02:43.962Z,14.37
2022-08-18T23:05:45.466Z,14.67
2022-08-18T23:08:54.999Z,13.17
2022-08-18T23:12:05.131Z,16.70
2022-08-18T23:15:11.129Z,14.70
2022-08-18T23:18:13.919Z,15.17
2022-08-18T23:21:34.734Z,14.83
2022-08-18T23:24:37.561Z,15.73
2022-08-18T23:27:39.403Z,17.13
2022-08-18T23:30:41.121Z,16.77
2022-08-18T23:33:42.859Z,15.13
2022-08-18T23:36:46.401Z,15.33
2022-08-18T23:39:48.226Z,15.53
2022-08-18T23:42:51.529Z,15.23
2022-08-18T23:45:53.138Z,15.23
2022-08-18T23:48:57.232Z,14.87
2022-08-18T23:51:59.945Z,15.60
2022-08-18T23:55:06.561Z,15.07
2022-08-18T23:58:09.514Z,17.13
